aviador You're here:

K0CO Decoded Metar

BERTHOUD PASS in CO, USA
Report Time2018-07-22 02:30:00
UTC Time2018-07-22 02:55:32
Flight Rules vfr VFR
Wind280° at 15 Gusting to 19 kt
W.Rank280° ranks 5
Current wind is below 280° avg. (19.3)
Visibility9999 m
Phenomena:N/A
Clouds:Scattered 070 Hf
Overcast 085 Hf
Expected CloudBase > 3,600 ft AGL from Temp-Dew spread
Ceiling8,500 ft
Temp11°C (ISA +23)
Dew Point02°C (54% RH)
AAT3.9°C
QNH1042 hPa
Density Alt15,246 ft
Elevation13,494 ft
Report Wrong Elevation
Raw Report
K0CO 220230Z AUTO 28015G19KT 10SM SCT070 OVC085 11/02 A3078 RMK
AO2 LTG DSNT N AND E=

Extra information for K0CO:More info

Metar Taf Metar & Taf Last 4 Metars F.Rules Stats Wind Profile Meteogram Temp Stats Airport Information Weather charts Add Link Nearby VenuesMetar ALERT Operation Metar Decoded Social comments

AIRNAV info for K0CO